Time;durP1;ratioP1;P1;durP2;ratioP2;P2;SDS_P1;SDS_P2;PMS_P1;PMS_P2;Temp;Humidity;BMP_temperature;BMP_pressure;BME280_temperature;BME280_humidity;BME280_pressure;Samples;Min_cycle;Max_cycle;Signal;HPM_P1;HPM_P2
2022/03/15 00:00:34;;;;;;;7.22;4.53;;;8.20;90.60;;;;;;2054269;28;20429;-89
2022/03/15 00:01:35;;;;;;;8.88;4.90;;;8.20;90.60;;;;;;2063926;28;20085;-90
2022/03/15 00:02:35;;;;;;;8.18;4.78;;;8.10;90.60;;;;;;2072260;28;20191;-89
2022/03/15 00:03:36;;;;;;;9.65;4.60;;;8.10;90.60;;;;;;2072601;28;20038;-90
2022/03/15 00:04:37;;;;;;;9.00;4.50;;;8.10;90.60;;;;;;2073145;28;20033;-89
2022/03/15 00:05:37;;;;;;;8.20;4.70;;;8.10;90.60;;;;;;2073767;28;20492;-89
2022/03/15 00:06:38;;;;;;;7.50;4.68;;;8.10;90.60;;;;;;2072396;28;20084;-88
2022/03/15 00:07:39;;;;;;;8.68;4.78;;;8.00;90.60;;;;;;2071733;28;20034;-90
2022/03/15 00:08:40;;;;;;;8.63;5.00;;;8.10;90.70;;;;;;2072520;28;20128;-90
2022/03/15 00:09:41;;;;;;;9.30;5.07;;;8.10;90.70;;;;;;2065329;28;20030;-89
2022/03/15 00:10:42;;;;;;;9.07;4.68;;;8.00;90.70;;;;;;2063674;28;20511;-89
2022/03/15 00:11:43;;;;;;;8.52;4.50;;;8.00;90.70;;;;;;2057180;28;20034;-90
2022/03/15 00:12:45;;;;;;;9.45;4.88;;;8.00;90.70;;;;;;2056791;28;20069;-89
2022/03/15 00:13:47;;;;;;;9.75;4.72;;;8.00;90.70;;;;;;2057063;28;20031;-90
2022/03/15 00:14:48;;;;;;;8.40;4.40;;;8.00;90.80;;;;;;2065345;28;20037;-90
2022/03/15 00:15:49;;;;;;;8.50;5.53;;;8.10;90.80;;;;;;2068868;28;20457;-89
2022/03/15 00:16:49;;;;;;;8.95;5.10;;;8.00;90.70;;;;;;2064935;28;20201;-89
2022/03/15 00:17:50;;;;;;;8.90;4.53;;;8.00;90.70;;;;;;2071215;28;20030;-89
2022/03/15 00:18:52;;;;;;;9.15;4.57;;;8.10;90.70;;;;;;2073032;28;20124;-89
2022/03/15 00:19:53;;;;;;;8.85;5.35;;;8.00;90.70;;;;;;2072949;28;20207;-90
2022/03/15 00:20:54;;;;;;;8.95;4.78;;;8.00;90.70;;;;;;2071148;28;20459;-89
2022/03/15 00:21:54;;;;;;;9.52;4.80;;;8.10;90.70;;;;;;2073076;28;20144;-89
2022/03/15 00:22:57;;;;;;;8.73;4.72;;;8.10;90.70;;;;;;2049858;28;20098;-89
2022/03/15 00:23:58;;;;;;;8.95;4.90;;;8.10;91.00;;;;;;2037684;28;20024;-89
2022/03/15 00:24:59;;;;;;;8.60;4.63;;;8.10;90.70;;;;;;2057409;28;20026;-89
2022/03/15 00:26:00;;;;;;;9.40;5.05;;;8.10;90.70;;;;;;2064877;28;20508;-89
2022/03/15 00:27:01;;;;;;;10.38;5.47;;;8.10;90.70;;;;;;2064958;28;20030;-89
2022/03/15 00:28:02;;;;;;;10.18;4.97;;;8.10;90.70;;;;;;2069401;28;20026;-89
2022/03/15 00:29:02;;;;;;;9.65;5.22;;;8.10;90.70;;;;;;2072983;28;20062;-89
2022/03/15 00:30:06;;;;;;;8.27;5.07;;;8.00;90.70;;;;;;2067335;28;20544;-89
2022/03/15 00:31:07;;;;;;;10.07;5.70;;;8.10;90.70;;;;;;2071799;28;20482;-89
2022/03/15 00:32:08;;;;;;;9.70;5.47;;;8.10;90.70;;;;;;2064418;28;20033;-89
2022/03/15 00:33:09;;;;;;;10.23;5.45;;;8.10;90.70;;;;;;2056698;28;20037;-90
2022/03/15 00:34:10;;;;;;;9.65;5.45;;;8.10;90.70;;;;;;2062255;28;20113;-89
2022/03/15 00:35:18;;;;;;;9.52;6.03;;;8.10;90.70;;;;;;2071498;28;20033;-89
2022/03/15 00:36:19;;;;;;;10.45;5.43;;;8.10;90.70;;;;;;2064394;28;20030;-89
2022/03/15 00:37:20;;;;;;;10.27;5.55;;;8.00;90.60;;;;;;2056198;28;20066;-90
2022/03/15 00:38:21;;;;;;;11.75;5.90;;;8.10;90.70;;;;;;2063511;28;20030;-89
2022/03/15 00:39:21;;;;;;;9.73;5.55;;;8.10;90.70;;;;;;2064635;28;20061;-89
2022/03/15 00:40:23;;;;;;;10.35;5.93;;;8.10;90.70;;;;;;2056692;28;20035;-89
2022/03/15 00:41:23;;;;;;;8.65;5.65;;;8.10;90.70;;;;;;2049099;28;20506;-89
2022/03/15 00:42:24;;;;;;;11.07;6.20;;;8.10;90.70;;;;;;2056673;28;20051;-89
2022/03/15 00:43:25;;;;;;;10.50;6.47;;;8.10;90.70;;;;;;2071637;28;20171;-89
2022/03/15 00:44:25;;;;;;;9.45;5.68;;;8.10;90.70;;;;;;2072897;28;20061;-89
2022/03/15 00:45:28;;;;;;;11.93;6.53;;;8.10;90.70;;;;;;2071955;28;20022;-89
2022/03/15 00:46:28;;;;;;;11.52;6.15;;;8.10;90.70;;;;;;2065630;28;20474;-89
2022/03/15 00:47:30;;;;;;;9.52;5.80;;;8.10;90.70;;;;;;2048631;28;20122;-89
2022/03/15 00:48:31;;;;;;;10.10;6.50;;;8.10;90.70;;;;;;2060858;28;20068;-89
2022/03/15 00:49:31;;;;;;;10.25;6.55;;;8.10;90.70;;;;;;2056833;28;20027;-89
2022/03/15 00:50:32;;;;;;;11.80;6.85;;;8.10;91.00;;;;;;2061590;28;20567;-89
2022/03/15 00:51:34;;;;;;;8.85;6.20;;;8.10;90.70;;;;;;2064040;28;20133;-87
2022/03/15 00:52:35;;;;;;;13.50;7.28;;;8.10;90.70;;;;;;2048901;28;20031;-89
2022/03/15 00:53:35;;;;;;;11.32;7.25;;;8.10;90.70;;;;;;2056877;28;20047;-89
2022/03/15 00:54:36;;;;;;;9.98;6.40;;;8.10;90.70;;;;;;2064515;28;20509;-90
2022/03/15 00:55:37;;;;;;;10.25;6.55;;;8.10;90.70;;;;;;2055759;28;20086;-89
2022/03/15 00:56:38;;;;;;;10.85;6.88;;;8.10;90.70;;;;;;2063905;28;20066;-89
2022/03/15 00:57:39;;;;;;;9.68;6.57;;;8.10;90.70;;;;;;2064752;28;20069;-89
2022/03/15 00:58:39;;;;;;;9.95;6.88;;;8.10;90.70;;;;;;2072357;28;20054;-89
2022/03/15 00:59:40;;;;;;;10.90;6.75;;;8.10;90.70;;;;;;2080940;28;20492;-89
2022/03/15 01:00:44;;;;;;;9.95;6.75;;;8.10;90.70;;;;;;2064687;28;20030;-90
2022/03/15 01:01:46;;;;;;;11.57;7.50;;;8.10;90.70;;;;;;2056066;28;20030;-89
2022/03/15 01:02:48;;;;;;;10.95;7.43;;;8.10;90.70;;;;;;2065179;28;20037;-89
2022/03/15 01:03:48;;;;;;;10.82;7.45;;;8.00;90.70;;;;;;2072807;28;20026;-89
2022/03/15 01:04:49;;;;;;;12.02;7.78;;;8.10;90.70;;;;;;2063120;28;20038;-90
2022/03/15 01:05:50;;;;;;;12.10;7.35;;;8.10;90.80;;;;;;2072568;28;20452;-89
2022/03/15 01:06:51;;;;;;;11.73;7.97;;;8.10;90.80;;;;;;2070140;28;20030;-89
2022/03/15 01:07:52;;;;;;;11.52;7.68;;;8.10;90.70;;;;;;2064496;28;20448;-89
2022/03/15 01:08:52;;;;;;;10.98;7.38;;;8.10;90.70;;;;;;2058488;28;20051;-89
2022/03/15 01:09:53;;;;;;;13.93;7.88;;;8.10;90.70;;;;;;2064645;28;20026;-89
2022/03/15 01:10:54;;;;;;;13.10;8.48;;;8.10;91.00;;;;;;2072843;28;20030;-89
2022/03/15 01:11:56;;;;;;;12.40;8.00;;;8.10;90.70;;;;;;2072561;28;20026;-89
2022/03/15 01:12:57;;;;;;;11.57;7.38;;;8.10;90.70;;;;;;2071444;28;20018;-90
2022/03/15 01:13:57;;;;;;;13.13;7.90;;;8.20;90.70;;;;;;2040721;29;20071;-89
2022/03/15 01:14:58;;;;;;;11.73;7.68;;;8.20;90.70;;;;;;2028883;29;20055;-89
2022/03/15 01:15:59;;;;;;;12.52;7.45;;;8.20;90.70;;;;;;2048700;28;20114;-89
2022/03/15 01:17:02;;;;;;;11.85;7.57;;;8.20;90.70;;;;;;2057599;28;20073;-89
2022/03/15 01:18:02;;;;;;;14.48;8.18;;;8.20;91.00;;;;;;2072874;28;20130;-90
2022/03/15 01:19:06;;;;;;;14.13;7.80;;;8.10;90.70;;;;;;2071460;28;20033;-89
2022/03/15 01:20:08;;;;;;;12.52;7.47;;;8.20;90.70;;;;;;2064757;28;20121;-89
2022/03/15 01:21:08;;;;;;;11.77;7.55;;;8.10;90.70;;;;;;2064776;28;20113;-89
2022/03/15 01:22:09;;;;;;;12.65;7.95;;;8.20;90.70;;;;;;2056903;28;20034;-89
2022/03/15 01:23:10;;;;;;;11.35;7.72;;;8.20;90.70;;;;;;2063765;28;20532;-89
2022/03/15 01:24:11;;;;;;;11.52;7.90;;;8.20;90.70;;;;;;2072434;28;20037;-90
2022/03/15 01:25:12;;;;;;;11.30;7.63;;;8.20;90.70;;;;;;2072116;28;20145;-89
2022/03/15 01:26:13;;;;;;;12.90;7.63;;;8.20;90.70;;;;;;2072768;28;20030;-89
2022/03/15 01:27:15;;;;;;;11.85;7.80;;;8.10;90.70;;;;;;2072877;28;20124;-89
2022/03/15 01:28:16;;;;;;;11.18;6.88;;;8.20;90.70;;;;;;2072131;28;20037;-88
2022/03/15 01:29:18;;;;;;;12.13;7.65;;;8.10;90.70;;;;;;2072692;28;20041;-89
2022/03/15 01:30:19;;;;;;;11.05;7.22;;;8.20;90.70;;;;;;2064685;28;20483;-89
2022/03/15 01:31:20;;;;;;;14.05;7.90;;;8.20;90.70;;;;;;2056932;28;20034;-89
2022/03/15 01:32:20;;;;;;;13.27;8.40;;;8.10;90.70;;;;;;2072788;28;20030;-89
2022/03/15 01:33:21;;;;;;;13.63;8.07;;;8.10;90.90;;;;;;2072681;28;20086;-89
2022/03/15 01:34:25;;;;;;;13.80;8.38;;;8.10;90.60;;;;;;2072612;28;20611;-89
2022/03/15 01:35:26;;;;;;;10.98;7.30;;;8.10;90.70;;;;;;2072373;28;20085;-90
2022/03/15 01:36:26;;;;;;;11.45;8.00;;;8.10;90.70;;;;;;2055054;28;20445;-89
2022/03/15 01:37:27;;;;;;;11.73;7.80;;;8.10;90.70;;;;;;2048623;28;20032;-89
2022/03/15 01:38:28;;;;;;;13.13;8.23;;;8.10;90.70;;;;;;2055761;28;20605;-90
2022/03/15 01:39:29;;;;;;;12.18;8.00;;;8.10;90.70;;;;;;2076118;28;20034;-89
2022/03/15 01:40:30;;;;;;;14.52;8.82;;;8.10;90.70;;;;;;2066387;28;20037;-89
2022/03/15 01:41:35;;;;;;;12.90;8.27;;;8.10;90.70;;;;;;2064577;28;20058;-89
2022/03/15 01:42:36;;;;;;;14.65;8.82;;;8.10;90.70;;;;;;2057247;28;20083;-90
2022/03/15 01:43:39;;;;;;;12.85;8.18;;;8.10;90.70;;;;;;2070845;28;20026;-89
2022/03/15 01:44:45;;;;;;;12.02;8.50;;;8.10;90.70;;;;;;2072524;28;20085;-90
2022/03/15 01:45:46;;;;;;;13.70;8.15;;;8.10;90.70;;;;;;2067351;28;20033;-89
2022/03/15 01:46:48;;;;;;;13.40;8.30;;;8.10;90.70;;;;;;2071428;28;20038;-89
2022/03/15 01:47:49;;;;;;;11.98;8.63;;;8.10;90.70;;;;;;2061784;28;20022;-89
2022/03/15 01:48:50;;;;;;;13.75;8.32;;;8.10;90.70;;;;;;2065848;28;20042;-89
2022/03/15 01:49:50;;;;;;;12.13;8.05;;;8.10;90.70;;;;;;2059057;28;20073;-89
2022/03/15 01:50:51;;;;;;;12.30;8.50;;;8.10;90.70;;;;;;2059956;28;20129;-89
2022/03/15 01:51:52;;;;;;;14.52;8.95;;;8.10;90.70;;;;;;2066118;28;20468;-89
2022/03/15 01:52:55;;;;;;;13.98;8.68;;;8.10;90.70;;;;;;2060978;28;20034;-89
2022/03/15 01:53:55;;;;;;;13.43;8.32;;;8.10;90.70;;;;;;2065424;28;20022;-90
2022/03/15 01:54:56;;;;;;;13.07;9.10;;;8.10;90.70;;;;;;2058267;28;20030;-89
2022/03/15 01:55:57;;;;;;;12.90;8.63;;;8.10;90.70;;;;;;2064446;28;20057;-89
2022/03/15 01:56:58;;;;;;;13.77;8.65;;;8.10;90.70;;;;;;2060826;28;20041;-89
2022/03/15 01:57:58;;;;;;;13.27;9.35;;;8.10;90.70;;;;;;2056289;28;20078;-89
2022/03/15 01:59:00;;;;;;;14.13;9.50;;;8.10;90.70;;;;;;2057656;28;20031;-89
2022/03/15 02:00:00;;;;;;;11.80;8.35;;;8.10;90.70;;;;;;2058094;28;20632;-89
2022/03/15 02:01:01;;;;;;;14.75;8.77;;;8.10;90.70;;;;;;2065034;28;20081;-89
2022/03/15 02:02:02;;;;;;;15.27;9.43;;;8.10;90.70;;;;;;2057905;28;20106;-89
2022/03/15 02:03:03;;;;;;;14.15;8.18;;;8.10;90.70;;;;;;2065840;28;20048;-89
2022/03/15 02:04:05;;;;;;;14.15;8.80;;;8.10;90.70;;;;;;2065633;28;20066;-89
2022/03/15 02:05:06;;;;;;;13.00;8.75;;;8.10;90.70;;;;;;2073662;28;20042;-88
2022/03/15 02:06:09;;;;;;;14.15;9.10;;;8.00;90.70;;;;;;2072772;28;20109;-89
2022/03/15 02:07:15;;;;;;;12.85;8.40;;;8.00;90.80;;;;;;2057512;28;20031;-90
2022/03/15 02:08:16;;;;;;;13.00;8.52;;;8.00;90.80;;;;;;2054617;28;20069;-89
2022/03/15 02:09:17;;;;;;;12.57;8.63;;;8.00;90.80;;;;;;2074065;28;20033;-89
2022/03/15 02:10:18;;;;;;;12.07;8.32;;;8.00;90.90;;;;;;2072923;28;20053;-89
2022/03/15 02:11:18;;;;;;;12.43;8.48;;;8.00;90.90;;;;;;2065754;28;20042;-89
2022/03/15 02:12:19;;;;;;;13.40;8.32;;;7.90;90.90;;;;;;2065845;28;20023;-89
2022/03/15 02:13:20;;;;;;;12.18;8.35;;;8.00;90.90;;;;;;2065713;28;20033;-89
2022/03/15 02:14:21;;;;;;;12.82;8.57;;;8.00;90.90;;;;;;2065506;28;20065;-89
2022/03/15 02:15:22;;;;;;;12.90;8.77;;;8.00;90.90;;;;;;2064547;28;20121;-89
2022/03/15 02:16:23;;;;;;;15.43;8.90;;;8.00;90.90;;;;;;2066130;28;20428;-89
2022/03/15 02:17:23;;;;;;;12.93;8.27;;;7.90;90.90;;;;;;2063800;28;20117;-89
2022/03/15 02:18:26;;;;;;;15.10;9.15;;;8.00;90.90;;;;;;2073063;28;20068;-89
2022/03/15 02:19:27;;;;;;;12.65;8.88;;;8.00;90.90;;;;;;2072783;28;20398;-89
2022/03/15 02:20:28;;;;;;;12.75;8.27;;;8.00;90.90;;;;;;2058244;28;20086;-90
2022/03/15 02:21:29;;;;;;;13.00;8.45;;;8.00;91.00;;;;;;2049350;28;20126;-89
2022/03/15 02:22:30;;;;;;;13.10;8.82;;;8.00;91.20;;;;;;2049746;28;20043;-89
2022/03/15 02:23:30;;;;;;;13.68;9.23;;;8.00;91.00;;;;;;2062013;28;20389;-90
2022/03/15 02:24:31;;;;;;;14.75;9.45;;;8.00;91.20;;;;;;2072063;28;20025;-89
2022/03/15 02:25:32;;;;;;;12.38;8.23;;;8.00;91.00;;;;;;2073764;28;20428;-89
2022/03/15 02:26:32;;;;;;;12.73;8.82;;;8.00;91.00;;;;;;2073504;28;20042;-90
2022/03/15 02:27:33;;;;;;;15.05;8.93;;;8.00;91.00;;;;;;2073480;28;20030;-90
2022/03/15 02:28:33;;;;;;;12.43;8.50;;;8.00;91.00;;;;;;2073378;28;20076;-89
2022/03/15 02:29:34;;;;;;;13.10;8.90;;;8.00;91.00;;;;;;2057511;28;20146;-89
2022/03/15 02:30:35;;;;;;;14.73;9.40;;;8.00;91.00;;;;;;2065713;28;20031;-89
2022/03/15 02:31:36;;;;;;;15.65;9.30;;;8.00;91.00;;;;;;2064149;28;20080;-90
2022/03/15 02:32:38;;;;;;;13.57;9.23;;;8.00;91.00;;;;;;2057638;28;20035;-89
2022/03/15 02:33:39;;;;;;;13.77;9.80;;;8.00;91.00;;;;;;2073742;28;20575;-90
2022/03/15 02:34:39;;;;;;;14.40;9.82;;;8.00;90.90;;;;;;2065065;28;20038;-89
2022/03/15 02:35:40;;;;;;;13.57;9.10;;;8.00;90.90;;;;;;2057161;28;20030;-89
2022/03/15 02:36:41;;;;;;;13.77;9.00;;;8.10;90.90;;;;;;2065410;28;20125;-89
2022/03/15 02:37:42;;;;;;;14.68;9.77;;;8.10;90.90;;;;;;2063768;28;20424;-88
2022/03/15 02:38:45;;;;;;;15.75;9.38;;;8.10;90.90;;;;;;2070810;28;20037;-90
2022/03/15 02:39:45;;;;;;;13.90;9.30;;;8.10;91.10;;;;;;2073741;28;20129;-89
2022/03/15 02:40:46;;;;;;;13.13;9.70;;;8.10;90.80;;;;;;2073754;28;20397;-89
2022/03/15 02:41:46;;;;;;;13.73;9.60;;;8.10;90.80;;;;;;2065672;28;20042;-89
2022/03/15 02:42:47;;;;;;;14.57;9.73;;;8.10;90.80;;;;;;2073592;28;20081;-89
2022/03/15 02:43:48;;;;;;;14.40;9.43;;;8.10;90.80;;;;;;2068240;28;20058;-89
2022/03/15 02:44:48;;;;;;;12.48;9.35;;;8.10;90.70;;;;;;2051957;28;20066;-90
2022/03/15 02:45:49;;;;;;;14.32;9.45;;;8.10;90.80;;;;;;2064991;28;20061;-89
2022/03/15 02:46:50;;;;;;;12.85;8.98;;;8.10;90.70;;;;;;2064281;28;20027;-90
2022/03/15 02:47:51;;;;;;;14.77;9.50;;;8.10;90.70;;;;;;2057411;28;20027;-90
2022/03/15 02:48:51;;;;;;;13.02;9.27;;;8.20;90.70;;;;;;2064836;28;20037;-90
2022/03/15 02:49:52;;;;;;;15.05;9.77;;;8.20;90.70;;;;;;2064757;28;20042;-89
2022/03/15 02:50:58;;;;;;;14.10;9.82;;;8.20;90.70;;;;;;2065526;28;20037;-89
2022/03/15 02:51:59;;;;;;;14.43;9.52;;;8.10;90.70;;;;;;2066183;28;20038;-89
2022/03/15 02:53:00;;;;;;;15.13;9.93;;;8.10;90.70;;;;;;2065428;28;20516;-89
2022/03/15 02:54:02;;;;;;;14.95;9.57;;;8.10;90.70;;;;;;2066277;28;20077;-89
2022/03/15 02:55:05;;;;;;;15.27;10.07;;;8.10;90.70;;;;;;2064845;28;20144;-89
2022/03/15 02:56:12;;;;;;;13.32;9.90;;;8.10;90.70;;;;;;2057742;28;21103;-89
2022/03/15 02:57:13;;;;;;;13.45;9.50;;;8.10;91.00;;;;;;2055823;28;20116;-89
2022/03/15 02:58:14;;;;;;;14.35;9.63;;;8.10;90.70;;;;;;2042297;28;20609;-89
2022/03/15 02:59:15;;;;;;;14.60;9.35;;;8.10;90.70;;;;;;2050223;28;20120;-89
2022/03/15 03:00:17;;;;;;;13.60;9.63;;;8.10;90.70;;;;;;2066447;28;20041;-89
2022/03/15 03:01:19;;;;;;;15.43;10.55;;;8.10;90.70;;;;;;2067821;28;20039;-89
2022/03/15 03:02:20;;;;;;;15.27;10.30;;;8.10;90.70;;;;;;2059726;28;20035;-89
2022/03/15 03:03:22;;;;;;;14.52;9.60;;;8.10;90.70;;;;;;2051815;28;20030;-89
2022/03/15 03:04:23;;;;;;;13.57;9.48;;;8.10;90.70;;;;;;2067435;28;20038;-89
2022/03/15 03:05:24;;;;;;;14.65;9.50;;;8.10;90.70;;;;;;2073736;28;20029;-89
2022/03/15 03:06:24;;;;;;;15.30;9.68;;;8.00;90.70;;;;;;2073566;28;20042;-89
2022/03/15 03:07:25;;;;;;;14.60;9.70;;;8.00;90.70;;;;;;2070856;28;20030;-89
2022/03/15 03:08:27;;;;;;;14.55;9.93;;;8.00;90.70;;;;;;2064860;28;20034;-89
2022/03/15 03:09:31;;;;;;;13.35;9.45;;;8.10;90.70;;;;;;2057567;28;20037;-90
2022/03/15 03:10:32;;;;;;;15.18;9.43;;;8.00;90.70;;;;;;2058115;28;20054;-90
2022/03/15 03:11:33;;;;;;;12.93;9.48;;;8.00;90.70;;;;;;2065411;28;20036;-89
2022/03/15 03:12:34;;;;;;;15.30;9.88;;;8.00;90.70;;;;;;2065049;28;20026;-89
2022/03/15 03:13:37;;;;;;;15.50;9.52;;;8.00;90.70;;;;;;2065325;28;20038;-89
2022/03/15 03:14:40;;;;;;;12.07;8.50;;;8.00;90.70;;;;;;2065841;28;20026;-89
2022/03/15 03:15:40;;;;;;;15.45;9.70;;;8.00;90.70;;;;;;2065542;28;20057;-89
2022/03/15 03:16:41;;;;;;;13.43;9.13;;;8.00;90.70;;;;;;2073462;28;20089;-90
2022/03/15 03:17:41;;;;;;;13.90;9.63;;;8.00;90.70;;;;;;2069331;28;20107;-89
2022/03/15 03:18:42;;;;;;;13.60;9.73;;;8.00;90.70;;;;;;2065025;28;20049;-89
2022/03/15 03:19:44;;;;;;;13.52;9.55;;;8.00;90.70;;;;;;2064851;28;20542;-89
2022/03/15 03:20:46;;;;;;;12.98;8.80;;;8.00;90.70;;;;;;2057380;28;20114;-89
2022/03/15 03:21:48;;;;;;;12.30;8.85;;;8.00;90.70;;;;;;2057524;28;20031;-89
2022/03/15 03:22:50;;;;;;;14.80;9.45;;;8.00;90.70;;;;;;2066062;28;20070;-90
2022/03/15 03:23:53;;;;;;;13.85;9.23;;;8.00;90.90;;;;;;2074060;28;20026;-89
2022/03/15 03:24:54;;;;;;;14.55;9.40;;;8.00;90.60;;;;;;2071107;28;20054;-89
2022/03/15 03:25:56;;;;;;;13.52;9.40;;;8.00;90.60;;;;;;2073052;28;20029;-89
2022/03/15 03:26:58;;;;;;;12.80;8.70;;;8.00;90.60;;;;;;2063622;28;20034;-89
2022/03/15 03:28:00;;;;;;;13.95;9.75;;;8.00;90.60;;;;;;2065262;28;20043;-89
2022/03/15 03:29:01;;;;;;;13.73;9.20;;;8.00;90.60;;;;;;2056655;28;20497;-89
2022/03/15 03:30:03;;;;;;;14.02;8.95;;;8.00;90.60;;;;;;2057076;28;20130;-90
2022/03/15 03:31:09;;;;;;;13.98;8.73;;;8.00;90.60;;;;;;2065879;28;20121;-90
2022/03/15 03:32:09;;;;;;;12.90;8.75;;;8.00;90.60;;;;;;2070786;28;20014;-89
2022/03/15 03:33:10;;;;;;;13.13;9.30;;;8.00;90.70;;;;;;2065204;28;20029;-88
2022/03/15 03:34:12;;;;;;;13.52;8.93;;;7.90;90.70;;;;;;2056817;28;22287;-90
2022/03/15 03:35:12;;;;;;;11.60;8.43;;;7.90;90.70;;;;;;2073177;28;20049;-89
2022/03/15 03:36:13;;;;;;;13.55;9.30;;;8.00;90.70;;;;;;2066772;28;20042;-89
2022/03/15 03:37:14;;;;;;;13.80;9.27;;;7.90;90.70;;;;;;2063742;28;20030;-90
2022/03/15 03:38:15;;;;;;;15.48;9.63;;;7.90;90.70;;;;;;2049074;29;20027;-89
2022/03/15 03:39:16;;;;;;;13.32;9.50;;;7.90;90.80;;;;;;2054412;28;20031;-89
2022/03/15 03:40:16;;;;;;;13.05;8.73;;;7.90;90.80;;;;;;2073364;28;20492;-89
2022/03/15 03:41:17;;;;;;;12.63;8.65;;;7.90;90.80;;;;;;2065166;28;20030;-90
2022/03/15 03:42:18;;;;;;;12.10;8.70;;;7.90;90.80;;;;;;2056140;28;20122;-89
2022/03/15 03:43:20;;;;;;;14.38;8.90;;;7.90;90.80;;;;;;2056947;28;20062;-89
2022/03/15 03:44:20;;;;;;;12.85;9.02;;;7.90;90.80;;;;;;2065842;28;20508;-89
2022/03/15 03:45:21;;;;;;;13.00;9.13;;;7.90;90.80;;;;;;2065099;28;20053;-89
2022/03/15 03:46:21;;;;;;;14.55;9.40;;;7.90;90.80;;;;;;2067377;28;20029;-89
2022/03/15 03:47:22;;;;;;;12.88;9.15;;;7.90;90.80;;;;;;2056547;28;20042;-89
2022/03/15 03:48:23;;;;;;;13.80;9.13;;;7.80;90.80;;;;;;2053309;28;21591;-89
2022/03/15 03:49:24;;;;;;;12.82;9.25;;;7.80;90.80;;;;;;2058274;28;20034;-89
2022/03/15 03:50:25;;;;;;;14.10;8.95;;;7.80;90.80;;;;;;2057257;28;20023;-89
2022/03/15 03:51:25;;;;;;;13.25;9.32;;;7.80;90.80;;;;;;2058193;28;20030;-89
2022/03/15 03:52:26;;;;;;;13.80;9.52;;;7.80;90.80;;;;;;2064788;28;20528;-89
2022/03/15 03:53:27;;;;;;;14.15;9.25;;;7.80;90.80;;;;;;2073117;28;20100;-90
2022/03/15 03:54:27;;;;;;;14.43;9.30;;;7.80;90.80;;;;;;2073799;28;20542;-90
2022/03/15 03:55:29;;;;;;;14.38;9.07;;;7.80;90.80;;;;;;2072971;28;20113;-90
2022/03/15 03:56:29;;;;;;;13.57;9.27;;;7.80;90.80;;;;;;2071773;28;20400;-89
2022/03/15 03:57:30;;;;;;;13.13;9.40;;;7.80;90.80;;;;;;2063119;28;20072;-89
2022/03/15 03:58:30;;;;;;;12.82;8.73;;;7.80;90.80;;;;;;2057481;28;20049;-89
2022/03/15 03:59:31;;;;;;;13.63;8.82;;;7.80;90.80;;;;;;2056989;28;20507;-89
2022/03/15 04:00:32;;;;;;;12.80;9.25;;;7.80;90.90;;;;;;2057718;28;20393;-89
2022/03/15 04:01:33;;;;;;;13.93;9.07;;;7.80;91.10;;;;;;2057784;28;20027;-90
2022/03/15 04:02:33;;;;;;;13.35;9.40;;;7.80;90.90;;;;;;2057241;28;20035;-90
2022/03/15 04:03:34;;;;;;;13.45;9.13;;;7.80;90.90;;;;;;2067325;28;20041;-90
2022/03/15 04:04:34;;;;;;;13.00;9.18;;;7.80;90.90;;;;;;2073198;28;20038;-90
2022/03/15 04:05:36;;;;;;;14.05;9.93;;;7.80;90.90;;;;;;2073019;28;20103;-89
2022/03/15 04:06:39;;;;;;;12.50;8.95;;;7.80;90.90;;;;;;2056041;28;20465;-89
2022/03/15 04:07:41;;;;;;;15.23;9.32;;;7.80;90.90;;;;;;2063123;28;20029;-89
2022/03/15 04:08:46;;;;;;;12.77;9.10;;;7.80;90.80;;;;;;2073014;28;20030;-89
2022/03/15 04:09:47;;;;;;;15.10;9.70;;;7.80;90.80;;;;;;2062985;28;20023;-89
2022/03/15 04:10:47;;;;;;;14.32;9.55;;;7.80;90.80;;;;;;2063215;28;20034;-90
2022/03/15 04:11:49;;;;;;;14.10;9.88;;;7.80;90.80;;;;;;2063193;28;20476;-89
2022/03/15 04:12:50;;;;;;;13.75;9.15;;;7.80;90.80;;;;;;2073006;28;20029;-89
2022/03/15 04:13:51;;;;;;;14.68;10.18;;;7.80;90.80;;;;;;2066571;28;20384;-89
2022/03/15 04:14:53;;;;;;;13.65;9.77;;;7.80;90.80;;;;;;2073092;28;20026;-89
2022/03/15 04:15:53;;;;;;;13.70;9.25;;;7.80;90.80;;;;;;2073230;28;20046;-89
2022/03/15 04:16:54;;;;;;;15.57;10.43;;;7.80;90.80;;;;;;2072112;28;20124;-89
2022/03/15 04:17:55;;;;;;;15.48;9.63;;;7.70;90.80;;;;;;2063599;28;20030;-90
2022/03/15 04:18:56;;;;;;;14.65;9.70;;;7.70;90.80;;;;;;2071877;28;20480;-89
2022/03/15 04:19:57;;;;;;;15.45;10.05;;;7.70;90.80;;;;;;2071844;28;20129;-90
2022/03/15 04:20:57;;;;;;;14.68;10.38;;;7.70;90.70;;;;;;2064613;28;20560;-89
2022/03/15 04:21:58;;;;;;;14.05;9.77;;;7.70;90.70;;;;;;2072883;28;20072;-89
2022/03/15 04:22:59;;;;;;;14.10;10.27;;;7.70;90.80;;;;;;2072964;28;20121;-89
2022/03/15 04:24:00;;;;;;;13.65;9.32;;;7.70;90.80;;;;;;2073169;28;20030;-89
2022/03/15 04:25:01;;;;;;;14.20;10.00;;;7.70;90.80;;;;;;2073502;28;20045;-89
2022/03/15 04:26:02;;;;;;;15.45;9.75;;;7.70;90.80;;;;;;2072506;28;20113;-89
2022/03/15 04:27:04;;;;;;;13.60;9.43;;;7.70;90.80;;;;;;2073616;28;20036;-89
2022/03/15 04:28:05;;;;;;;15.02;10.27;;;7.70;90.80;;;;;;2064299;28;20497;-89
2022/03/15 04:29:06;;;;;;;13.20;9.77;;;7.70;90.80;;;;;;2068281;28;20037;-89
2022/03/15 04:30:07;;;;;;;14.30;10.02;;;7.70;90.80;;;;;;2072522;28;20465;-89
2022/03/15 04:31:07;;;;;;;14.55;9.98;;;7.70;90.80;;;;;;2064871;28;20507;-89
2022/03/15 04:32:09;;;;;;;13.68;9.30;;;7.70;90.80;;;;;;2064270;28;20027;-89
2022/03/15 04:33:09;;;;;;;14.38;9.95;;;7.70;90.80;;;;;;2073704;28;20022;-90
2022/03/15 04:34:10;;;;;;;13.90;9.82;;;7.70;90.80;;;;;;2073609;28;20088;-89
2022/03/15 04:35:11;;;;;;;13.65;9.60;;;7.70;90.80;;;;;;2072894;28;20029;-89
2022/03/15 04:36:12;;;;;;;14.15;9.20;;;7.70;90.80;;;;;;2071958;28;20614;-90
2022/03/15 04:37:13;;;;;;;12.57;9.32;;;7.70;90.90;;;;;;2072306;28;20030;-89
2022/03/15 04:38:14;;;;;;;12.77;9.57;;;7.60;90.90;;;;;;2063882;28;20038;-89
2022/03/15 04:39:15;;;;;;;15.85;10.13;;;7.60;90.90;;;;;;2056532;28;20468;-89
2022/03/15 04:40:17;;;;;;;14.73;9.40;;;7.60;90.90;;;;;;2048640;28;20023;-90
2022/03/15 04:41:18;;;;;;;13.32;9.82;;;7.60;90.90;;;;;;2064865;28;20057;-89
2022/03/15 04:42:18;;;;;;;15.63;9.93;;;7.60;90.80;;;;;;2065301;28;20069;-90
2022/03/15 04:43:19;;;;;;;15.57;9.90;;;7.60;90.80;;;;;;2071607;28;20022;-89
2022/03/15 04:44:20;;;;;;;12.80;9.30;;;7.60;90.80;;;;;;2056637;28;20508;-89
2022/03/15 04:45:22;;;;;;;13.10;9.85;;;7.60;90.80;;;;;;2063758;28;20507;-89
2022/03/15 04:46:23;;;;;;;15.48;10.52;;;7.60;90.80;;;;;;2071260;28;20102;-89
2022/03/15 04:47:24;;;;;;;13.52;9.05;;;7.60;90.80;;;;;;2048695;28;20086;-89
2022/03/15 04:48:25;;;;;;;13.57;9.45;;;7.60;90.80;;;;;;2056570;28;20508;-89
2022/03/15 04:49:25;;;;;;;15.07;9.88;;;7.60;90.80;;;;;;2064632;28;20019;-89
2022/03/15 04:50:26;;;;;;;13.68;10.07;;;7.70;90.80;;;;;;2064396;28;20031;-90
2022/03/15 04:51:27;;;;;;;14.57;9.48;;;7.70;90.80;;;;;;2056633;28;20074;-89
2022/03/15 04:52:28;;;;;;;14.40;9.60;;;7.60;90.70;;;;;;2064828;28;20036;-89
2022/03/15 04:53:29;;;;;;;13.80;9.43;;;7.70;90.80;;;;;;2064956;28;20037;-89
2022/03/15 04:54:30;;;;;;;13.70;9.40;;;7.60;90.70;;;;;;2048477;28;20438;-89
2022/03/15 04:55:30;;;;;;;12.63;8.80;;;7.60;90.70;;;;;;2057015;28;20407;-90
2022/03/15 04:56:31;;;;;;;13.13;9.18;;;7.60;90.70;;;;;;2072459;28;20037;-89
2022/03/15 04:57:32;;;;;;;13.48;9.25;;;7.60;90.70;;;;;;2064223;28;20036;-89
2022/03/15 04:58:32;;;;;;;12.40;8.70;;;7.60;90.70;;;;;;2064361;28;20053;-89
2022/03/15 04:59:33;;;;;;;14.77;9.05;;;7.60;90.70;;;;;;2064106;28;20030;-89
2022/03/15 05:00:34;;;;;;;13.98;9.10;;;7.60;90.70;;;;;;2061408;28;20043;-89
2022/03/15 05:01:34;;;;;;;13.00;8.55;;;7.60;90.70;;;;;;2072928;28;20118;-89
2022/03/15 05:02:41;;;;;;;12.48;8.98;;;7.60;90.70;;;;;;2072565;28;20420;-90
2022/03/15 05:03:41;;;;;;;13.57;8.82;;;7.70;90.70;;;;;;2072504;28;20030;-89
2022/03/15 05:04:42;;;;;;;11.63;8.52;;;7.60;90.70;;;;;;2064627;28;20030;-89
2022/03/15 05:05:44;;;;;;;12.95;9.25;;;7.70;90.70;;;;;;2069716;28;20048;-89
2022/03/15 05:06:44;;;;;;;13.40;8.57;;;7.60;90.60;;;;;;2072856;28;20475;-90
2022/03/15 05:07:45;;;;;;;12.80;8.40;;;7.60;90.60;;;;;;2064477;28;20036;-89
2022/03/15 05:08:46;;;;;;;12.27;8.77;;;7.60;90.60;;;;;;2064757;28;20037;-89
2022/03/15 05:11:06;;;;;;;14.38;8.77;;;7.60;90.60;;;;;;2065178;28;20247;-89
2022/03/15 05:12:07;;;;;;;13.68;8.27;;;7.60;90.60;;;;;;2065034;28;20142;-89
2022/03/15 05:13:07;;;;;;;11.48;8.23;;;7.70;90.60;;;;;;2064738;28;20033;-89
2022/03/15 05:14:08;;;;;;;13.75;8.65;;;7.60;90.60;;;;;;2064738;28;20508;-89
2022/03/15 05:15:09;;;;;;;13.18;7.95;;;7.60;90.60;;;;;;2065306;28;20034;-89
2022/03/15 05:16:18;;;;;;;14.10;8.32;;;7.60;90.60;;;;;;2071570;28;20137;-89
2022/03/15 05:17:19;;;;;;;11.55;7.80;;;7.60;90.60;;;;;;2072376;28;20084;-89
2022/03/15 05:18:20;;;;;;;10.50;7.07;;;7.60;90.60;;;;;;2069715;28;20035;-88
2022/03/15 05:19:21;;;;;;;11.07;8.10;;;7.60;90.60;;;;;;2065571;28;20019;-89
2022/03/15 05:20:23;;;;;;;12.93;8.27;;;7.60;90.60;;;;;;2046266;28;20478;-89